LFBD Airport Information

Runway Information
Runway 05 Length 10171 ft width 148 ft
Elevation 160 ft Threshold 0 ft Heading 46
Runway 23 Length 10171 ft Width 148 ft
Elevation 151 ft Threshold 0 ft Heading 226
Runway 11 Length 7923 ft width 148 ft
Elevation 153 ft Threshold 0 ft Heading 107
Runway 29 Length 7923 ft Width 148 ft
Elevation 160 ft Threshold 0 ft Heading 287
Airport Frequencies
Type APP Name AQUITAINE Frequency 118.6 MHZ
Type ARR Name APP Frequency 121.2 MHZ
Type ATIS Name ATIS Frequency 131.15 MHZ
Type GND Name GND Frequency 121.9 MHZ
Type INFO Name AQUITAINE Frequency 120.575 MHZ
Type OPS Name OPNS Frequency 143.175 MHZ
Type TWR Name TWR Frequency 118.3 MHZ
Airport Navaids
Type NDB Name Bordeaux Frequency 393 KHZ
Type TACAN Name Bordeaux Frequency 114400 KHZ
Type NDB Name Bordeaux Frequency 318 KHZ
Type VOR-DME Name Bordeaux Frequency 113750 KHZ
Type NDB Name Bordeaux Frequency 361 KHZ
Airport Weather Information & NOTAM
ADDS - METARS form results

(0144 UTC 20 August 2019)
Data provider http://aviationweather.gov/metar/data/
 
METAR text: LFBD 200130Z AUTO VRB02KT CAVOK 17/13 Q1021 NOSIG
Conditions at: LFBD (BORDEAUX/MERIGNA, FR) observed 0130 UTC 20 August 2019
Temperature: 17.0°C (63°F)
Dewpoint: 13.0°C (55°F) [RH = 77%]
Pressure (altimeter): 30.15 inches Hg (1021.0 mb)
Winds: variable direction winds at 2 MPH (2 knots; 1.0 m/s)
Visibility: 6 or more miles (10+ km)
Ceiling: ceiling and visibility are OK
Clouds: unknown
Weather: no significant weather observed at this time

METAR text: LFBD 200100Z AUTO 03004KT CAVOK 16/13 Q1021 NOSIG
Conditions at: LFBD (BORDEAUX/MERIGNA, FR) observed 0100 UTC 20 August 2019
Temperature: 16.0°C (61°F)
Dewpoint: 13.0°C (55°F) [RH = 82%]
Pressure (altimeter): 30.15 inches Hg (1021.0 mb)
Winds: from the NNE (30 degrees) at 5 MPH (4 knots; 2.1 m/s)
Visibility: 6 or more miles (10+ km)
Ceiling: ceiling and visibility are OK
Clouds: unknown
Weather: no significant weather observed at this time

Forecast for: LFBD (BORDEAUX/MERIGNA, FR)
Text: TAF LFBD 192300Z 2000/2106 36006KT CAVOK TX25/2015Z TN15/2105Z
Forecast period: 0000 UTC 20 August 2019 to 0600 UTC 21 August 2019
Forecast type: FROM: standard forecast or significant change
Winds: from the N (360 degrees) at 7 MPH (6 knots; 3.1 m/s)
Visibility: 6 or more miles 10+ km)
Ceiling: unknown
Clouds: missing
Weather: no significant weather forecast for this period